createdAt,value
2022-10-09T00:02:21.088Z,7.23
2022-10-09T00:05:27.141Z,7.90
2022-10-09T00:08:30.289Z,6.20
2022-10-09T00:11:34.350Z,6.10
2022-10-09T00:14:37.569Z,8.30
2022-10-09T00:17:41.019Z,6.53
2022-10-09T00:20:47.587Z,6.10
2022-10-09T00:23:51.946Z,7.90
2022-10-09T00:26:55.801Z,7.73
2022-10-09T00:29:59.289Z,6.37
2022-10-09T00:33:02.840Z,7.87
2022-10-09T00:36:09.627Z,5.60
2022-10-09T00:39:12.808Z,6.63
2022-10-09T00:42:16.340Z,7.53
2022-10-09T00:45:22.971Z,7.13
2022-10-09T00:48:26.212Z,7.13
2022-10-09T00:51:32.353Z,7.80
2022-10-09T00:54:38.585Z,7.70
2022-10-09T00:57:43.212Z,6.70
2022-10-09T01:00:46.562Z,7.00
2022-10-09T01:03:49.860Z,6.93
2022-10-09T01:07:13.685Z,7.87
2022-10-09T01:10:27.877Z,7.60
2022-10-09T01:13:37.333Z,7.80
2022-10-09T01:16:45.975Z,7.30
2022-10-09T01:20:04.969Z,6.70
2022-10-09T01:23:26.639Z,7.20
2022-10-09T01:26:46.022Z,10.97
2022-10-09T01:29:51.437Z,9.10
2022-10-09T01:32:56.119Z,6.50
2022-10-09T01:36:00.960Z,7.13
2022-10-09T01:39:06.302Z,8.00
2022-10-09T01:42:13.084Z,6.80
2022-10-09T01:45:16.812Z,8.13
2022-10-09T01:48:26.134Z,6.57
2022-10-09T01:51:34.895Z,8.60
2022-10-09T01:54:51.789Z,6.80
2022-10-09T01:58:02.009Z,7.43
2022-10-09T02:01:08.861Z,6.53
2022-10-09T02:04:14.610Z,7.40
2022-10-09T02:07:18.921Z,7.30
2022-10-09T02:10:23.481Z,7.53
2022-10-09T02:13:28.588Z,7.27
2022-10-09T02:16:38.682Z,6.43
2022-10-09T02:19:48.529Z,8.13
2022-10-09T02:22:52.931Z,5.57
2022-10-09T02:25:56.942Z,5.80
2022-10-09T02:29:01.633Z,6.10
2022-10-09T02:32:04.943Z,5.67
2022-10-09T02:35:09.470Z,5.47
2022-10-09T02:38:12.745Z,6.63
2022-10-09T02:41:16.072Z,5.20
2022-10-09T02:44:20.874Z,5.30
2022-10-09T02:47:24.301Z,5.20
2022-10-09T02:50:27.605Z,5.10
2022-10-09T02:53:31.089Z,5.97
2022-10-09T02:56:38.645Z,5.90
2022-10-09T02:59:43.661Z,6.57
2022-10-09T03:02:47.229Z,8.20
2022-10-09T03:06:00.227Z,5.60
2022-10-09T03:09:03.458Z,5.00
2022-10-09T03:12:07.339Z,5.67
2022-10-09T03:15:12.987Z,5.80
2022-10-09T03:18:16.101Z,5.30
2022-10-09T03:21:21.318Z,5.67
2022-10-09T03:24:24.921Z,5.40
2022-10-09T03:27:28.005Z,4.80
2022-10-09T03:30:32.470Z,6.87
2022-10-09T03:33:36.754Z,5.40
2022-10-09T03:36:40.091Z,8.03
2022-10-09T03:39:43.475Z,5.57
2022-10-09T03:42:47.350Z,8.40
2022-10-09T03:45:52.831Z,6.50
2022-10-09T03:48:56.290Z,6.73
2022-10-09T03:51:59.531Z,6.53
2022-10-09T03:55:03.039Z,6.57
2022-10-09T03:58:06.592Z,6.73
2022-10-09T04:01:11.383Z,5.80
2022-10-09T04:04:14.577Z,7.00
2022-10-09T04:07:17.720Z,6.20
2022-10-09T04:10:21.266Z,6.97
2022-10-09T04:13:24.668Z,6.60
2022-10-09T04:16:29.504Z,6.70
2022-10-09T04:19:32.683Z,6.03
2022-10-09T04:22:35.967Z,7.60
2022-10-09T04:25:39.412Z,7.07
2022-10-09T04:28:42.676Z,6.00
2022-10-09T04:31:47.270Z,6.50
2022-10-09T04:34:50.411Z,7.70
2022-10-09T04:37:53.472Z,7.57
2022-10-09T04:40:58.127Z,7.20
2022-10-09T04:44:01.207Z,7.20
2022-10-09T04:47:10.503Z,8.00
2022-10-09T04:50:15.234Z,8.27
2022-10-09T04:53:18.512Z,8.20
2022-10-09T04:56:22.446Z,7.97
2022-10-09T04:59:25.511Z,7.73
2022-10-09T05:02:29.985Z,8.47
2022-10-09T05:05:33.577Z,10.00
2022-10-09T05:08:37.651Z,8.43
2022-10-09T05:11:42.813Z,9.37
2022-10-09T05:14:46.172Z,8.30
2022-10-09T05:17:50.658Z,8.70
2022-10-09T05:20:53.755Z,8.83
2022-10-09T05:23:57.240Z,8.33
2022-10-09T05:27:00.338Z,8.50
2022-10-09T05:30:03.515Z,8.47
2022-10-09T05:33:07.980Z,8.93
2022-10-09T05:36:11.121Z,8.20
2022-10-09T05:39:14.233Z,10.87
2022-10-09T05:42:17.397Z,9.17
2022-10-09T05:45:20.494Z,10.00
2022-10-09T05:48:25.106Z,12.10
2022-10-09T05:51:30.416Z,11.37
2022-10-09T05:54:33.522Z,10.13
2022-10-09T05:57:36.675Z,11.17
2022-10-09T06:00:39.773Z,10.90
2022-10-09T06:03:44.324Z,10.60
2022-10-09T06:06:48.816Z,11.10
2022-10-09T06:09:52.222Z,13.00
2022-10-09T06:12:55.320Z,9.40
2022-10-09T06:15:58.433Z,8.87
2022-10-09T06:19:03.251Z,8.20
2022-10-09T06:22:06.376Z,9.40
2022-10-09T06:25:10.469Z,9.93
2022-10-09T06:28:13.577Z,9.57
2022-10-09T06:31:19.073Z,11.47
2022-10-09T06:34:23.733Z,10.40
2022-10-09T06:37:26.853Z,10.60
2022-10-09T06:40:29.940Z,9.60
2022-10-09T06:43:33.356Z,7.37
2022-10-09T06:46:40.283Z,5.93
2022-10-09T06:49:44.777Z,8.37
2022-10-09T06:52:48.163Z,8.83
2022-10-09T06:55:54.756Z,10.40
2022-10-09T06:59:00.387Z,8.40
2022-10-09T07:02:03.634Z,7.13
2022-10-09T07:05:09.109Z,6.73
2022-10-09T07:08:12.188Z,7.33
2022-10-09T07:11:20.953Z,8.33
2022-10-09T07:14:24.128Z,7.00
2022-10-09T07:17:28.063Z,7.87
2022-10-09T07:20:32.570Z,6.23
2022-10-09T07:23:37.230Z,6.20
2022-10-09T07:26:42.335Z,7.13
2022-10-09T07:29:45.494Z,5.90
2022-10-09T07:32:48.854Z,6.20
2022-10-09T07:35:57.200Z,10.60
2022-10-09T07:39:00.688Z,6.13
2022-10-09T07:42:04.184Z,6.60
2022-10-09T07:45:08.131Z,6.20
2022-10-09T07:48:11.277Z,6.30
2022-10-09T07:51:18.121Z,6.87
2022-10-09T07:54:21.198Z,6.43
2022-10-09T07:57:24.307Z,6.60
2022-10-09T08:00:27.591Z,7.20
2022-10-09T08:03:30.953Z,6.10
2022-10-09T08:06:36.073Z,6.70
2022-10-09T08:09:39.686Z,6.10
2022-10-09T08:12:42.798Z,5.83
2022-10-09T08:15:46.528Z,8.97
2022-10-09T08:18:50.348Z,6.40
2022-10-09T08:21:54.791Z,7.03
2022-10-09T08:24:58.202Z,6.97
2022-10-09T08:28:01.338Z,4.97
2022-10-09T08:31:12.052Z,7.30
2022-10-09T08:34:15.289Z,4.87
2022-10-09T08:37:19.913Z,6.00
2022-10-09T08:40:30.440Z,5.30
2022-10-09T08:43:36.990Z,6.17
2022-10-09T08:46:53.940Z,6.20
2022-10-09T08:50:01.452Z,7.83
2022-10-09T08:53:13.663Z,5.03
2022-10-09T08:56:16.993Z,6.40
2022-10-09T08:59:20.171Z,5.80
2022-10-09T09:02:41.498Z,5.37
2022-10-09T09:05:50.746Z,7.93
2022-10-09T09:09:01.177Z,4.80
2022-10-09T09:12:10.103Z,7.47
2022-10-09T09:15:29.145Z,9.13
2022-10-09T09:18:42.860Z,6.97
2022-10-09T09:21:51.272Z,8.17
2022-10-09T09:24:57.305Z,5.93
2022-10-09T09:28:12.520Z,5.17
2022-10-09T09:31:20.576Z,6.30
2022-10-09T09:34:28.136Z,5.37
2022-10-09T09:37:31.253Z,5.30
2022-10-09T09:40:38.122Z,5.40
2022-10-09T09:43:42.925Z,5.47
2022-10-09T09:46:48.921Z,4.40
2022-10-09T09:49:56.545Z,4.67
2022-10-09T09:53:03.755Z,6.73
2022-10-09T09:56:09.176Z,4.90
2022-10-09T09:59:28.791Z,6.53
2022-10-09T10:02:32.045Z,5.33
2022-10-09T10:05:38.154Z,6.40
2022-10-09T10:08:41.273Z,9.97
2022-10-09T10:11:49.073Z,8.23
2022-10-09T10:14:52.313Z,6.83
2022-10-09T10:18:04.061Z,8.40
2022-10-09T10:21:14.141Z,12.87
2022-10-09T10:24:22.120Z,7.07
2022-10-09T10:27:31.416Z,5.90
2022-10-09T10:30:36.777Z,8.87
2022-10-09T10:33:40.040Z,7.00
2022-10-09T10:36:43.405Z,6.20
2022-10-09T10:39:51.093Z,7.17
2022-10-09T10:43:08.349Z,6.93
2022-10-09T10:46:23.267Z,8.93
2022-10-09T10:49:31.664Z,7.27
2022-10-09T10:52:50.729Z,6.77
2022-10-09T10:56:01.410Z,6.17
2022-10-09T10:59:44.711Z,5.20
2022-10-09T11:03:18.758Z,6.20
2022-10-09T11:06:27.166Z,6.77
2022-10-09T11:09:40.514Z,6.80
2022-10-09T11:12:50.794Z,7.93
2022-10-09T11:16:05.723Z,5.37
2022-10-09T11:19:22.621Z,5.30
2022-10-09T11:22:41.178Z,6.47
2022-10-09T11:25:55.309Z,5.17
2022-10-09T11:29:04.155Z,5.70
2022-10-09T11:32:15.941Z,5.83
2022-10-09T11:35:23.208Z,5.23
2022-10-09T11:38:30.063Z,7.33
2022-10-09T11:41:35.806Z,6.53
2022-10-09T11:44:47.941Z,5.30
2022-10-09T11:48:00.374Z,4.37
2022-10-09T11:51:12.990Z,6.47
2022-10-09T11:54:19.775Z,4.60
2022-10-09T11:57:29.921Z,9.90
2022-10-09T12:00:36.125Z,5.13
2022-10-09T12:03:41.388Z,5.57
2022-10-09T12:06:49.011Z,4.60
2022-10-09T12:10:00.042Z,5.80
2022-10-09T12:13:06.496Z,4.70
2022-10-09T12:16:11.967Z,6.57
2022-10-09T12:19:26.176Z,6.67
2022-10-09T12:22:34.844Z,6.37
2022-10-09T12:25:42.273Z,4.93
2022-10-09T12:28:49.949Z,6.53
2022-10-09T12:31:57.059Z,6.57
2022-10-09T12:35:05.560Z,5.63
2022-10-09T12:38:17.816Z,4.53
2022-10-09T12:41:23.301Z,6.60
2022-10-09T12:44:31.190Z,5.87
2022-10-09T12:47:36.400Z,6.17
2022-10-09T12:50:41.955Z,6.90
2022-10-09T12:53:50.170Z,5.30
2022-10-09T12:56:54.856Z,4.27
2022-10-09T12:59:58.669Z,6.30
2022-10-09T13:03:02.559Z,7.70
2022-10-09T13:06:09.315Z,12.73
2022-10-09T13:09:21.471Z,6.93
2022-10-09T13:12:27.095Z,8.40
2022-10-09T13:15:36.448Z,4.87
2022-10-09T13:18:39.757Z,6.27
2022-10-09T13:21:44.266Z,4.10
2022-10-09T13:24:47.811Z,23.67
2022-10-09T13:27:51.525Z,14.83
2022-10-09T13:30:55.053Z,7.47
2022-10-09T13:33:58.248Z,6.57
2022-10-09T13:37:02.757Z,5.70
2022-10-09T13:40:06.988Z,7.13
2022-10-09T13:43:14.076Z,6.60
2022-10-09T13:46:17.334Z,6.97
2022-10-09T13:49:20.571Z,35.47
2022-10-09T13:52:25.166Z,58.93
2022-10-09T13:55:28.535Z,39.20
2022-10-09T13:58:31.758Z,42.03
2022-10-09T14:01:35.027Z,35.40
2022-10-09T14:04:38.237Z,23.33
2022-10-09T14:07:42.835Z,32.07
2022-10-09T14:10:46.036Z,16.10
2022-10-09T14:13:49.152Z,12.67
2022-10-09T14:16:52.308Z,7.80
2022-10-09T14:19:55.533Z,6.40
2022-10-09T14:23:00.070Z,7.47
2022-10-09T14:26:05.057Z,7.07
2022-10-09T14:29:08.187Z,6.17
2022-10-09T14:32:11.353Z,21.57
2022-10-09T14:35:18.160Z,30.80
2022-10-09T14:38:25.865Z,10.63
2022-10-09T14:41:32.169Z,29.53
2022-10-09T14:44:37.690Z,13.60
2022-10-09T14:47:40.794Z,17.07
2022-10-09T14:50:43.928Z,14.37
2022-10-09T14:53:48.848Z,11.13
2022-10-09T14:56:51.988Z,58.10
2022-10-09T14:59:55.349Z,62.87
2022-10-09T15:02:59.764Z,21.73
2022-10-09T15:06:05.972Z,59.37
2022-10-09T15:09:10.416Z,46.73
2022-10-09T15:12:13.551Z,134.60
2022-10-09T15:15:16.797Z,22.77
2022-10-09T15:18:19.918Z,24.57
2022-10-09T15:21:25.160Z,20.97
2022-10-09T15:24:29.647Z,7.67
2022-10-09T15:27:32.783Z,6.33
2022-10-09T15:30:35.908Z,5.73
2022-10-09T15:33:39.137Z,6.13
2022-10-09T15:36:44.025Z,6.63
2022-10-09T15:39:48.515Z,6.03
2022-10-09T15:42:51.846Z,6.10
2022-10-09T15:46:03.481Z,6.07
2022-10-09T15:49:08.197Z,11.60
2022-10-09T15:52:11.334Z,6.10
2022-10-09T15:55:15.993Z,6.50
2022-10-09T15:58:19.886Z,5.90
2022-10-09T16:01:24.032Z,8.13
2022-10-09T16:04:28.486Z,6.50
2022-10-09T16:07:31.837Z,6.90
2022-10-09T16:10:36.452Z,9.23
2022-10-09T16:13:41.012Z,7.60
2022-10-09T16:16:44.158Z,7.60
2022-10-09T16:19:47.295Z,6.50
2022-10-09T16:22:50.637Z,10.33
2022-10-09T16:26:00.973Z,10.60
2022-10-09T16:29:04.141Z,9.77
2022-10-09T16:32:07.350Z,9.80
2022-10-09T16:35:10.867Z,9.10
2022-10-09T16:38:14.124Z,7.90
2022-10-09T16:41:20.292Z,7.70
2022-10-09T16:44:23.386Z,9.07
2022-10-09T16:47:26.686Z,8.37
2022-10-09T16:50:30.051Z,15.90
2022-10-09T16:53:33.702Z,8.53
2022-10-09T16:56:40.043Z,8.70
2022-10-09T16:59:44.751Z,12.00
2022-10-09T17:02:48.100Z,14.03
2022-10-09T17:05:51.477Z,15.87
2022-10-09T17:08:56.477Z,20.47
2022-10-09T17:12:01.407Z,12.20
2022-10-09T17:15:05.466Z,9.73
2022-10-09T17:18:09.359Z,10.33
2022-10-09T17:21:14.516Z,9.80
2022-10-09T17:24:18.782Z,11.37
2022-10-09T17:27:23.622Z,11.73
2022-10-09T17:30:27.518Z,11.00
2022-10-09T17:33:31.890Z,11.37
2022-10-09T17:36:36.874Z,14.70
2022-10-09T17:39:44.142Z,13.80
2022-10-09T17:42:50.819Z,11.87
2022-10-09T17:45:54.991Z,16.63
2022-10-09T17:48:59.858Z,19.23
2022-10-09T17:52:03.887Z,19.53
2022-10-09T17:55:08.318Z,16.17
2022-10-09T17:58:13.530Z,13.50
2022-10-09T18:01:18.484Z,17.97
2022-10-09T18:04:21.747Z,18.73
2022-10-09T18:07:25.546Z,18.00
2022-10-09T18:10:29.208Z,23.07
2022-10-09T18:13:35.062Z,22.00
2022-10-09T18:16:39.328Z,13.07
2022-10-09T18:19:43.191Z,39.23
2022-10-09T18:22:47.487Z,28.63
2022-10-09T18:25:51.244Z,15.53
2022-10-09T18:28:56.329Z,18.23
2022-10-09T18:32:00.325Z,16.97
2022-10-09T18:35:04.648Z,14.20
2022-10-09T18:38:10.218Z,15.93
2022-10-09T18:41:14.580Z,18.63
2022-10-09T18:44:24.962Z,29.60
2022-10-09T18:47:33.078Z,20.03
2022-10-09T18:50:39.004Z,45.23
2022-10-09T18:53:46.062Z,31.63
2022-10-09T18:56:50.249Z,20.70
2022-10-09T18:59:58.720Z,21.37
2022-10-09T19:03:03.029Z,18.20
2022-10-09T19:06:08.074Z,15.73
2022-10-09T19:09:12.093Z,14.77
2022-10-09T19:12:17.223Z,19.10
2022-10-09T19:15:22.241Z,18.67
2022-10-09T19:18:26.234Z,13.63
2022-10-09T19:21:30.661Z,11.53
2022-10-09T19:24:34.548Z,29.93
2022-10-09T19:27:38.053Z,45.80
2022-10-09T19:30:43.120Z,58.43
2022-10-09T19:33:46.544Z,25.57
2022-10-09T19:36:51.030Z,75.90
2022-10-09T19:39:54.648Z,61.53
2022-10-09T19:42:58.500Z,37.57
2022-10-09T19:46:04.846Z,45.63
2022-10-09T19:49:08.999Z,57.30
2022-10-09T19:52:12.168Z,52.63
2022-10-09T19:55:16.142Z,35.37
2022-10-09T19:58:19.350Z,46.70
2022-10-09T20:01:27.084Z,22.10
2022-10-09T20:04:30.458Z,44.50
2022-10-09T20:07:34.076Z,23.10
2022-10-09T20:10:37.871Z,13.20
2022-10-09T20:13:42.558Z,28.80
2022-10-09T20:16:47.091Z,35.83
2022-10-09T20:19:50.314Z,22.93
2022-10-09T20:22:53.533Z,14.87
2022-10-09T20:26:01.172Z,11.67
2022-10-09T20:29:06.896Z,11.63
2022-10-09T20:32:12.222Z,10.23
2022-10-09T20:35:15.386Z,10.07
2022-10-09T20:38:24.720Z,8.33
2022-10-09T20:41:30.116Z,10.87
2022-10-09T20:44:33.259Z,11.00
2022-10-09T20:47:37.799Z,11.60
2022-10-09T20:50:43.005Z,7.03
2022-10-09T20:53:46.422Z,8.13
2022-10-09T20:56:50.784Z,11.30
2022-10-09T20:59:53.878Z,8.40
2022-10-09T21:02:58.591Z,11.80
2022-10-09T21:06:04.271Z,9.10
2022-10-09T21:09:07.729Z,9.70
2022-10-09T21:12:10.862Z,6.83
2022-10-09T21:15:14.156Z,9.03
2022-10-09T21:18:20.354Z,6.77
2022-10-09T21:21:24.180Z,5.90
2022-10-09T21:24:27.758Z,6.60
2022-10-09T21:27:30.876Z,6.43
2022-10-09T21:30:41.452Z,6.20
2022-10-09T21:33:46.880Z,8.80
2022-10-09T21:37:20.797Z,5.67
2022-10-09T21:40:17.980Z,11.77
2022-10-09T21:43:21.137Z,6.53
2022-10-09T21:46:24.421Z,6.37
2022-10-09T21:49:29.577Z,7.23
2022-10-09T21:52:32.717Z,5.17
2022-10-09T21:55:35.887Z,10.50
2022-10-09T21:58:39.927Z,5.13
2022-10-09T22:01:43.083Z,6.23
2022-10-09T22:04:47.627Z,5.40
2022-10-09T22:07:50.740Z,6.87
2022-10-09T22:10:53.877Z,5.43
2022-10-09T22:13:57.286Z,7.10
2022-10-09T22:17:00.425Z,7.93
2022-10-09T22:20:05.862Z,6.23
2022-10-09T22:23:09.127Z,6.33
2022-10-09T22:26:14.656Z,4.90
2022-10-09T22:29:17.725Z,6.90
2022-10-09T22:32:20.812Z,6.33
2022-10-09T22:35:25.561Z,5.20
2022-10-09T22:38:28.697Z,5.70
2022-10-09T22:41:33.014Z,7.37
2022-10-09T22:44:36.096Z,8.83
2022-10-09T22:47:39.195Z,7.80
2022-10-09T22:50:43.639Z,6.43
2022-10-09T22:53:47.453Z,5.70
2022-10-09T22:56:50.523Z,4.60
2022-10-09T22:59:53.583Z,5.47
2022-10-09T23:02:56.724Z,4.90
2022-10-09T23:06:11.529Z,5.93
2022-10-09T23:09:16.640Z,8.83
2022-10-09T23:12:19.736Z,7.60
2022-10-09T23:15:22.933Z,5.20
2022-10-09T23:18:26.054Z,6.43
2022-10-09T23:21:30.594Z,7.03
2022-10-09T23:24:33.684Z,6.03
2022-10-09T23:27:36.796Z,6.80
2022-10-09T23:30:40.056Z,4.77
2022-10-09T23:33:46.137Z,6.03
2022-10-09T23:36:50.624Z,5.27
2022-10-09T23:39:53.782Z,6.20
2022-10-09T23:42:56.926Z,4.87
2022-10-09T23:46:01.696Z,6.40
2022-10-09T23:49:05.700Z,4.93
2022-10-09T23:52:10.174Z,6.80
2022-10-09T23:55:13.303Z,5.00
2022-10-09T23:58:20.718Z,6.23
